Time;durP1;ratioP1;P1;durP2;ratioP2;P2;SDS_P1;SDS_P2;PMS_P1;PMS_P2;Temp;Humidity;BMP_temperature;BMP_pressure;BME280_temperature;BME280_humidity;BME280_pressure;Samples;Min_cycle;Max_cycle;Signal;HPM_P1;HPM_P2
2022/03/16 00:01:44;;;;;;;21.10;13.68;;;;;;;;;;5083307;28;20141;-62
2022/03/16 00:04:10;;;;;;;19.80;13.40;;;;;;;;;;5080885;28;20150;-61
2022/03/16 00:06:36;;;;;;;20.00;13.60;;;;;;;;;;5088525;28;20159;-63
2022/03/16 00:09:02;;;;;;;26.05;16.38;;;;;;;;;;5086524;28;20194;-62
2022/03/16 00:11:28;;;;;;;27.13;16.92;;;;;;;;;;5080106;28;20117;-61
2022/03/16 00:13:54;;;;;;;29.60;15.95;;;;;;;;;;5087540;28;20036;-64
2022/03/16 00:16:20;;;;;;;21.77;15.05;;;;;;;;;;5084296;28;20227;-62
2022/03/16 00:18:46;;;;;;;26.55;14.55;;;;;;;;;;5082856;28;20150;-64
2022/03/16 00:21:12;;;;;;;23.17;15.38;;;;;;;;;;5086927;28;20438;-62
2022/03/16 00:23:38;;;;;;;25.17;15.38;;;;;;;;;;5080660;28;20047;-64
2022/03/16 00:26:04;;;;;;;24.48;14.50;;;;;;;;;;5083222;28;20044;-63
2022/03/16 00:28:30;;;;;;;25.00;15.02;;;;;;;;;;5083652;28;20131;-63
2022/03/16 00:30:56;;;;;;;23.33;13.85;;;;;;;;;;5074921;28;20119;-62
2022/03/16 00:33:22;;;;;;;24.42;16.23;;;;;;;;;;5087467;28;20119;-63
2022/03/16 00:35:48;;;;;;;26.70;15.88;;;;;;;;;;5086825;28;20036;-63
2022/03/16 00:38:16;;;;;;;24.58;15.07;;;;;;;;;;5088940;28;20042;-62
2022/03/16 00:40:42;;;;;;;28.67;15.70;;;;;;;;;;5089408;28;20502;-62
2022/03/16 00:43:08;;;;;;;19.92;13.05;;;;;;;;;;5087871;28;20040;-62
2022/03/16 00:45:34;;;;;;;23.98;15.00;;;;;;;;;;5084617;28;20051;-63
2022/03/16 00:48:00;;;;;;;25.23;15.48;;;;;;;;;;5089212;28;20040;-63
2022/03/16 00:50:27;;;;;;;26.58;15.50;;;;;;;;;;5088249;28;20039;-62
2022/03/16 00:52:53;;;;;;;27.60;15.88;;;;;;;;;;5085303;28;20032;-62
2022/03/16 00:55:20;;;;;;;55.95;14.63;;;;;;;;;;5087230;28;20059;-62
2022/03/16 00:57:46;;;;;;;26.77;16.67;;;;;;;;;;5088153;28;20509;-62
2022/03/16 01:00:12;;;;;;;32.17;18.50;;;;;;;;;;5088456;28;20046;-62
2022/03/16 01:02:38;;;;;;;27.40;17.60;;;;;;;;;;5088679;28;20485;-62
2022/03/16 01:05:05;;;;;;;32.60;19.15;;;;;;;;;;5086644;28;20036;-63
2022/03/16 01:07:31;;;;;;;28.88;17.80;;;;;;;;;;5087458;28;20402;-61
2022/03/16 01:09:57;;;;;;;30.42;17.05;;;;;;;;;;5088760;28;20416;-63
2022/03/16 01:12:23;;;;;;;28.90;18.40;;;;;;;;;;5086066;28;20048;-62
2022/03/16 01:14:49;;;;;;;29.75;18.55;;;;;;;;;;5083396;28;20039;-63
2022/03/16 01:17:15;;;;;;;32.30;19.40;;;;;;;;;;5085624;28;20032;-62
2022/03/16 01:19:41;;;;;;;32.80;19.90;;;;;;;;;;5085821;28;20040;-63
2022/03/16 01:22:08;;;;;;;28.80;18.55;;;;;;;;;;5085573;28;20039;-62
2022/03/16 01:24:34;;;;;;;31.55;19.40;;;;;;;;;;5087330;28;20067;-61
2022/03/16 01:27:00;;;;;;;30.08;18.08;;;;;;;;;;5084048;28;20042;-62
2022/03/16 01:29:26;;;;;;;29.33;18.10;;;;;;;;;;5088001;28;20040;-62
2022/03/16 01:31:53;;;;;;;27.02;16.65;;;;;;;;;;5085955;28;20032;-62
2022/03/16 01:34:19;;;;;;;29.13;18.35;;;;;;;;;;5087551;28;20032;-63
2022/03/16 01:36:46;;;;;;;31.50;18.13;;;;;;;;;;5086445;28;20070;-61
2022/03/16 01:39:12;;;;;;;33.30;19.52;;;;;;;;;;5088976;28;20394;-62
2022/03/16 01:41:38;;;;;;;30.33;17.52;;;;;;;;;;5086236;28;20093;-62
2022/03/16 01:44:04;;;;;;;30.98;17.80;;;;;;;;;;5089956;28;20068;-62
2022/03/16 01:46:30;;;;;;;28.67;17.73;;;;;;;;;;5081589;28;20089;-61
2022/03/16 01:48:57;;;;;;;27.85;17.27;;;;;;;;;;5086358;28;20474;-62
2022/03/16 01:51:24;;;;;;;27.23;17.23;;;;;;;;;;5084670;28;20052;-63
2022/03/16 01:53:50;;;;;;;26.20;16.85;;;;;;;;;;5087462;28;20032;-62
2022/03/16 01:56:16;;;;;;;26.55;17.30;;;;;;;;;;5085006;28;20047;-62
2022/03/16 01:58:43;;;;;;;27.63;17.40;;;;;;;;;;5087207;28;20054;-61
2022/03/16 02:01:09;;;;;;;27.27;16.65;;;;;;;;;;5086133;28;20039;-63
2022/03/16 02:03:35;;;;;;;29.67;17.25;;;;;;;;;;5089091;28;20082;-61
2022/03/16 02:06:02;;;;;;;27.17;17.35;;;;;;;;;;5086265;28;20064;-62
2022/03/16 02:08:33;;;;;;;28.58;17.00;;;;;;;;;;5090897;28;20398;-62
2022/03/16 02:10:59;;;;;;;28.25;17.77;;;;;;;;;;5086507;28;20068;-62
2022/03/16 02:13:25;;;;;;;25.85;16.48;;;;;;;;;;5087115;28;20055;-61
2022/03/16 02:15:51;;;;;;;28.23;15.15;;;;;;;;;;5087242;28;20040;-62
2022/03/16 02:18:17;;;;;;;28.02;16.33;;;;;;;;;;5085236;28;20043;-63
2022/03/16 02:20:46;;;;;;;27.42;15.95;;;;;;;;;;5089445;28;20040;-63
2022/03/16 02:23:12;;;;;;;24.63;15.98;;;;;;;;;;5084199;28;20089;-62
2022/03/16 02:25:49;;;;;;;27.52;15.77;;;;;;;;;;5089128;28;20043;-62
2022/03/16 02:28:15;;;;;;;26.73;16.27;;;;;;;;;;5088253;28;20462;-63
2022/03/16 02:30:42;;;;;;;25.83;16.38;;;;;;;;;;5088301;28;20086;-63
2022/03/16 02:33:08;;;;;;;24.77;15.88;;;;;;;;;;5085698;28;20044;-62
2022/03/16 02:35:34;;;;;;;24.13;15.77;;;;;;;;;;5090186;28;20044;-61
2022/03/16 02:38:00;;;;;;;26.30;15.30;;;;;;;;;;5092211;28;20096;-61
2022/03/16 02:40:26;;;;;;;23.10;15.13;;;;;;;;;;5089908;28;20047;-61
2022/03/16 02:42:52;;;;;;;29.50;18.42;;;;;;;;;;5086682;28;20060;-62
2022/03/16 02:45:19;;;;;;;31.85;19.63;;;;;;;;;;5090818;28;20119;-61
2022/03/16 02:47:45;;;;;;;29.33;18.20;;;;;;;;;;5091985;28;20042;-62
2022/03/16 02:50:12;;;;;;;31.35;18.00;;;;;;;;;;5090727;28;20032;-62
2022/03/16 02:52:39;;;;;;;30.27;18.70;;;;;;;;;;5088730;28;20050;-61
2022/03/16 02:55:06;;;;;;;33.63;19.33;;;;;;;;;;5090845;28;20115;-63
2022/03/16 02:57:32;;;;;;;31.45;17.95;;;;;;;;;;5091155;28;20059;-62
2022/03/16 02:59:58;;;;;;;27.75;18.10;;;;;;;;;;5088599;28;20051;-63
2022/03/16 03:02:24;;;;;;;29.95;17.02;;;;;;;;;;5088486;28;20040;-62
2022/03/16 03:04:50;;;;;;;26.65;17.20;;;;;;;;;;5089427;28;20038;-60
2022/03/16 03:07:16;;;;;;;25.33;16.10;;;;;;;;;;5089205;28;20796;-62
2022/03/16 03:09:42;;;;;;;25.77;16.23;;;;;;;;;;5090595;28;20040;-61
2022/03/16 03:12:08;;;;;;;24.23;15.45;;;;;;;;;;5088937;28;20101;-63
2022/03/16 03:14:34;;;;;;;20.88;13.60;;;;;;;;;;5089136;28;20509;-62
2022/03/16 03:17:00;;;;;;;21.13;13.00;;;;;;;;;;5086577;28;20409;-62
2022/03/16 03:19:26;;;;;;;15.60;10.95;;;;;;;;;;5087832;28;20490;-62
2022/03/16 03:21:52;;;;;;;14.48;9.63;;;;;;;;;;5088510;28;20047;-63
2022/03/16 03:24:19;;;;;;;13.25;8.80;;;;;;;;;;5088184;28;21633;-61
2022/03/16 03:26:45;;;;;;;13.15;9.00;;;;;;;;;;5088036;28;20036;-61
2022/03/16 03:29:11;;;;;;;13.52;9.70;;;;;;;;;;5089300;28;20044;-62
2022/03/16 03:31:37;;;;;;;12.40;9.20;;;;;;;;;;5087613;28;20039;-62
2022/03/16 03:34:04;;;;;;;11.18;8.65;;;;;;;;;;5088940;28;20083;-61
2022/03/16 03:36:30;;;;;;;13.80;8.10;;;;;;;;;;5087573;28;20036;-63
2022/03/16 03:38:56;;;;;;;11.68;9.48;;;;;;;;;;5089370;28;20125;-63
2022/03/16 03:41:22;;;;;;;12.55;8.82;;;;;;;;;;5088546;28;20036;-61
2022/03/16 03:43:48;;;;;;;11.30;8.52;;;;;;;;;;5090310;28;20070;-62
2022/03/16 03:46:14;;;;;;;10.70;8.15;;;;;;;;;;5090136;28;20394;-62
2022/03/16 03:48:40;;;;;;;10.90;8.18;;;;;;;;;;5088190;28;20552;-62
2022/03/16 03:51:06;;;;;;;11.18;8.68;;;;;;;;;;5088834;28;20043;-62
2022/03/16 03:53:33;;;;;;;12.20;8.52;;;;;;;;;;5084730;28;20089;-62
2022/03/16 03:55:59;;;;;;;10.38;8.32;;;;;;;;;;5082961;28;20434;-62
2022/03/16 03:58:25;;;;;;;12.88;9.35;;;;;;;;;;5082987;28;20048;-61
2022/03/16 04:00:52;;;;;;;13.15;9.70;;;;;;;;;;5085896;28;20698;-61
2022/03/16 04:03:19;;;;;;;16.23;10.52;;;;;;;;;;5085817;28;20066;-61
2022/03/16 04:05:45;;;;;;;15.75;11.38;;;;;;;;;;5088912;28;20048;-62
2022/03/16 04:08:11;;;;;;;17.75;12.88;;;;;;;;;;5086484;28;20039;-63
2022/03/16 04:10:39;;;;;;;16.92;11.82;;;;;;;;;;5087270;28;20044;-62
2022/03/16 04:13:05;;;;;;;17.83;12.27;;;;;;;;;;5088077;28;20040;-60
2022/03/16 04:15:31;;;;;;;15.88;11.40;;;;;;;;;;5088625;28;20390;-62
2022/03/16 04:17:57;;;;;;;14.98;11.05;;;;;;;;;;5088616;28;20385;-62
2022/03/16 04:20:23;;;;;;;14.43;11.38;;;;;;;;;;5088773;28;20130;-62
2022/03/16 04:22:49;;;;;;;16.77;11.57;;;;;;;;;;5089764;28;20036;-62
2022/03/16 04:25:15;;;;;;;19.70;12.27;;;;;;;;;;5086562;28;20174;-62
2022/03/16 04:27:41;;;;;;;17.27;12.02;;;;;;;;;;5088481;28;20051;-61
2022/03/16 04:30:07;;;;;;;17.80;12.02;;;;;;;;;;5087756;28;20133;-62
2022/03/16 04:32:34;;;;;;;19.33;12.80;;;;;;;;;;5090105;28;20494;-60
2022/03/16 04:35:00;;;;;;;23.00;14.70;;;;;;;;;;5081452;28;20028;-62
2022/03/16 04:37:26;;;;;;;22.02;14.95;;;;;;;;;;5087405;28;20036;-62
2022/03/16 04:39:52;;;;;;;23.00;15.00;;;;;;;;;;5089107;28;20036;-62
2022/03/16 04:42:18;;;;;;;21.15;15.15;;;;;;;;;;5084902;28;20043;-62
2022/03/16 04:44:44;;;;;;;23.40;15.55;;;;;;;;;;5084528;28;20486;-60
2022/03/16 04:47:10;;;;;;;26.38;17.90;;;;;;;;;;5088317;28;20040;-63
2022/03/16 04:49:36;;;;;;;23.23;16.33;;;;;;;;;;5086354;28;20060;-61
2022/03/16 04:52:02;;;;;;;26.55;16.92;;;;;;;;;;5087115;28;20198;-61
2022/03/16 04:54:29;;;;;;;24.40;16.42;;;;;;;;;;5088086;28;20039;-62
2022/03/16 04:56:56;;;;;;;23.80;16.48;;;;;;;;;;5078643;28;20055;-63
2022/03/16 04:59:22;;;;;;;20.75;15.35;;;;;;;;;;5086533;28;20052;-61
2022/03/16 05:01:48;;;;;;;22.50;16.13;;;;;;;;;;5085344;28;20044;-61
2022/03/16 05:04:14;;;;;;;25.42;15.88;;;;;;;;;;5087903;28;20076;-63
2022/03/16 05:06:40;;;;;;;25.17;16.58;;;;;;;;;;5088425;28;20093;-62
2022/03/16 05:09:06;;;;;;;27.70;17.13;;;;;;;;;;5088488;28;20089;-61
2022/03/16 05:11:34;;;;;;;21.88;15.63;;;;;;;;;;5084196;28;20056;-62
2022/03/16 05:14:00;;;;;;;24.15;16.58;;;;;;;;;;5090321;28;20044;-62
2022/03/16 05:16:26;;;;;;;23.15;16.17;;;;;;;;;;5087508;28;20105;-61
2022/03/16 05:18:52;;;;;;;23.10;14.73;;;;;;;;;;5085825;28;20035;-61
2022/03/16 05:21:18;;;;;;;26.42;15.82;;;;;;;;;;5086166;28;20129;-63
2022/03/16 05:23:44;;;;;;;27.30;16.85;;;;;;;;;;5087513;28;20055;-62
2022/03/16 05:26:10;;;;;;;26.02;15.75;;;;;;;;;;5085694;28;21360;-62
2022/03/16 05:28:36;;;;;;;24.17;15.55;;;;;;;;;;5087837;28;20075;-62
2022/03/16 05:31:02;;;;;;;26.02;16.88;;;;;;;;;;5087679;28;20122;-62
2022/03/16 05:33:28;;;;;;;24.98;16.73;;;;;;;;;;5083508;28;20461;-62
2022/03/16 05:35:54;;;;;;;22.77;16.08;;;;;;;;;;5088415;28;20123;-63
2022/03/16 05:38:21;;;;;;;26.73;17.63;;;;;;;;;;5087122;28;20120;-61
2022/03/16 05:40:47;;;;;;;26.60;16.83;;;;;;;;;;5088615;28;20078;-60
2022/03/16 05:43:13;;;;;;;26.80;17.83;;;;;;;;;;5089983;28;20497;-61
2022/03/16 05:45:39;;;;;;;25.58;18.17;;;;;;;;;;5090050;28;20063;-62
2022/03/16 05:48:05;;;;;;;28.17;18.00;;;;;;;;;;5092328;28;20040;-62
2022/03/16 05:50:32;;;;;;;27.30;16.85;;;;;;;;;;5090484;28;20032;-62
2022/03/16 05:53:02;;;;;;;27.90;17.83;;;;;;;;;;5090590;28;20036;-62
2022/03/16 05:55:28;;;;;;;26.58;18.38;;;;;;;;;;5091226;28;20123;-61
2022/03/16 05:57:54;;;;;;;27.35;18.00;;;;;;;;;;5087639;28;20058;-62
2022/03/16 06:00:21;;;;;;;27.88;17.17;;;;;;;;;;5088116;28;20040;-62
2022/03/16 06:02:48;;;;;;;26.05;17.77;;;;;;;;;;5087195;28;20608;-60
2022/03/16 06:05:14;;;;;;;30.63;19.50;;;;;;;;;;5084550;28;20051;-60
2022/03/16 06:07:41;;;;;;;27.30;18.77;;;;;;;;;;5091225;28;20039;-60
2022/03/16 06:10:07;;;;;;;31.02;18.45;;;;;;;;;;5091537;28;20040;-63
2022/03/16 06:12:33;;;;;;;31.35;20.05;;;;;;;;;;5091610;28;20100;-63
2022/03/16 06:14:59;;;;;;;28.17;19.05;;;;;;;;;;5090790;28;20044;-63
2022/03/16 06:17:25;;;;;;;31.08;19.42;;;;;;;;;;5090405;28;20456;-62
2022/03/16 06:19:51;;;;;;;28.60;19.67;;;;;;;;;;5091344;28;20106;-62
2022/03/16 06:22:18;;;;;;;29.77;19.80;;;;;;;;;;5089391;28;20036;-61
2022/03/16 06:24:44;;;;;;;29.33;19.60;;;;;;;;;;5088077;28;20055;-61
2022/03/16 06:27:10;;;;;;;30.20;19.77;;;;;;;;;;5091535;28;20393;-61
2022/03/16 06:29:36;;;;;;;30.33;20.05;;;;;;;;;;5092173;28;20036;-62
2022/03/16 06:32:02;;;;;;;32.25;21.92;;;;;;;;;;5090789;28;20459;-62
2022/03/16 06:34:28;;;;;;;30.63;22.13;;;;;;;;;;5090770;28;20050;-61
2022/03/16 06:36:54;;;;;;;29.15;20.02;;;;;;;;;;5082918;28;20414;-61
2022/03/16 06:39:20;;;;;;;29.08;20.73;;;;;;;;;;5092551;28;20046;-61
2022/03/16 06:41:46;;;;;;;29.75;20.27;;;;;;;;;;5090904;28;20046;-63
2022/03/16 06:44:12;;;;;;;30.75;19.92;;;;;;;;;;5091479;28;20397;-62
2022/03/16 06:46:38;;;;;;;30.20;21.02;;;;;;;;;;5090851;28;20038;-62
2022/03/16 06:49:04;;;;;;;26.15;19.33;;;;;;;;;;5090171;28;20040;-62
2022/03/16 06:51:30;;;;;;;33.38;21.92;;;;;;;;;;5094641;28;20044;-62
2022/03/16 06:53:56;;;;;;;29.23;20.35;;;;;;;;;;5090583;28;20115;-62
2022/03/16 06:56:22;;;;;;;29.38;20.45;;;;;;;;;;5091276;28;20429;-62
2022/03/16 06:58:49;;;;;;;30.33;21.27;;;;;;;;;;5091046;28;20463;-63
2022/03/16 07:01:15;;;;;;;30.65;21.58;;;;;;;;;;5092605;28;20402;-61
2022/03/16 07:03:43;;;;;;;31.30;21.20;;;;;;;;;;5090749;28;20040;-62
2022/03/16 07:06:10;;;;;;;32.63;22.17;;;;;;;;;;5091127;28;20067;-61
2022/03/16 07:08:36;;;;;;;28.98;20.02;;;;;;;;;;5088498;28;20040;-62
2022/03/16 07:11:02;;;;;;;29.92;20.88;;;;;;;;;;5091546;28;20043;-62
2022/03/16 07:13:28;;;;;;;29.20;20.58;;;;;;;;;;5087565;28;20035;-62
2022/03/16 07:15:54;;;;;;;27.17;20.13;;;;;;;;;;5091904;28;20036;-62
2022/03/16 07:18:23;;;;;;;31.33;21.73;;;;;;;;;;5090851;28;20028;-62
2022/03/16 07:20:49;;;;;;;31.77;21.58;;;;;;;;;;5088685;28;20097;-63
2022/03/16 07:23:17;;;;;;;30.38;20.90;;;;;;;;;;5090680;28;20190;-62
2022/03/16 07:25:48;;;;;;;29.80;21.92;;;;;;;;;;5090746;28;20086;-62
2022/03/16 07:28:14;;;;;;;32.13;21.10;;;;;;;;;;5091014;28;20036;-62
2022/03/16 07:30:41;;;;;;;34.33;22.98;;;;;;;;;;5091541;28;20536;-62
2022/03/16 07:33:08;;;;;;;30.55;21.58;;;;;;;;;;5090068;28;20464;-61
2022/03/16 07:35:35;;;;;;;32.33;21.33;;;;;;;;;;5088952;28;20438;-61
2022/03/16 07:38:04;;;;;;;32.30;23.08;;;;;;;;;;5091244;28;20032;-61
2022/03/16 07:40:31;;;;;;;33.67;22.70;;;;;;;;;;5091029;28;20390;-62
2022/03/16 07:42:57;;;;;;;33.20;22.17;;;;;;;;;;5087513;28;20181;-61
2022/03/16 07:45:24;;;;;;;31.77;22.67;;;;;;;;;;5091350;28;20048;-62
2022/03/16 07:47:52;;;;;;;30.90;22.80;;;;;;;;;;5088850;28;20113;-62
2022/03/16 07:50:18;;;;;;;33.70;23.10;;;;;;;;;;5090308;28;20054;-62
2022/03/16 07:52:45;;;;;;;35.47;22.48;;;;;;;;;;5089543;28;20032;-61
2022/03/16 07:55:11;;;;;;;34.90;23.10;;;;;;;;;;5089948;28;20430;-61
2022/03/16 07:57:37;;;;;;;32.25;21.60;;;;;;;;;;5089149;28;20040;-61
2022/03/16 08:00:07;;;;;;;30.38;20.65;;;;;;;;;;5090262;28;20044;-62
2022/03/16 08:02:33;;;;;;;29.65;20.50;;;;;;;;;;5091291;28;20047;-61
2022/03/16 08:05:00;;;;;;;28.63;19.67;;;;;;;;;;5087295;28;20050;-62
2022/03/16 08:07:30;;;;;;;29.58;21.02;;;;;;;;;;5091195;28;20035;-62
2022/03/16 08:09:56;;;;;;;32.13;20.30;;;;;;;;;;5089297;28;20608;-62
2022/03/16 08:12:23;;;;;;;25.40;18.35;;;;;;;;;;5091080;28;20389;-62
2022/03/16 08:14:50;;;;;;;28.63;19.45;;;;;;;;;;5090097;28;20032;-62
2022/03/16 08:17:16;;;;;;;25.98;18.73;;;;;;;;;;5089915;28;20039;-62
2022/03/16 08:19:42;;;;;;;27.15;18.45;;;;;;;;;;5091683;28;20038;-60
2022/03/16 08:22:08;;;;;;;24.27;17.90;;;;;;;;;;5090574;28;20090;-62
2022/03/16 08:24:34;;;;;;;25.10;16.85;;;;;;;;;;5084877;28;20036;-62
2022/03/16 08:27:00;;;;;;;23.45;17.15;;;;;;;;;;5083127;28;20422;-61
2022/03/16 08:29:26;;;;;;;23.23;17.05;;;;;;;;;;5086283;28;20082;-63
2022/03/16 08:31:54;;;;;;;21.40;16.58;;;;;;;;;;5087097;28;20056;-64
2022/03/16 08:34:20;;;;;;;23.40;16.65;;;;;;;;;;5085959;28;20067;-62
2022/03/16 08:36:46;;;;;;;24.80;16.65;;;;;;;;;;5089184;28;20035;-62
2022/03/16 08:39:12;;;;;;;25.42;15.85;;;;;;;;;;5090047;28;20040;-62
2022/03/16 08:41:38;;;;;;;22.50;15.43;;;;;;;;;;5088102;28;20379;-63
2022/03/16 08:44:04;;;;;;;23.90;14.65;;;;;;;;;;5087924;28;20130;-62
2022/03/16 08:46:30;;;;;;;22.13;15.38;;;;;;;;;;5087128;28;20481;-62
2022/03/16 08:48:56;;;;;;;25.08;14.90;;;;;;;;;;5089816;28;20040;-61
2022/03/16 08:51:23;;;;;;;23.48;15.48;;;;;;;;;;5089696;28;20028;-62
2022/03/16 08:53:49;;;;;;;21.13;14.32;;;;;;;;;;5090038;28;20043;-63
2022/03/16 08:56:16;;;;;;;21.67;15.48;;;;;;;;;;5090560;28;20040;-63
2022/03/16 08:58:42;;;;;;;24.95;15.65;;;;;;;;;;5090357;28;20056;-63
2022/03/16 09:01:08;;;;;;;25.05;16.38;;;;;;;;;;5087077;28;20119;-62
2022/03/16 09:03:34;;;;;;;24.35;16.52;;;10.60;99.90;;;;;;5088577;28;20075;-61
2022/03/16 09:06:00;;;;;;;25.30;16.25;;;;;;;;;;5088165;28;20410;-62
2022/03/16 09:08:26;;;;;;;24.92;16.40;;;;;;;;;;5088923;28;20055;-62
2022/03/16 09:10:53;;;;;;;24.10;16.05;;;;;;;;;;5090011;28;20455;-63
2022/03/16 09:13:20;;;;;;;24.23;15.98;;;;;;;;;;5089804;28;20406;-63
2022/03/16 09:15:46;;;;;;;19.58;13.75;;;;;;;;;;5087763;28;20543;-63
2022/03/16 09:18:12;;;;;;;21.15;13.43;;;;;;;;;;5089129;28;20066;-63
2022/03/16 09:20:38;;;;;;;18.40;12.55;;;11.50;99.90;;;;;;5089696;28;20075;-61
2022/03/16 09:23:04;;;;;;;21.92;13.52;;;;;;;;;;5090351;28;20040;-61
2022/03/16 09:25:31;;;;;;;20.58;14.10;;;;;;;;;;5089087;28;20440;-62
2022/03/16 09:27:57;;;;;;;16.25;9.70;;;;;;;;;;5089852;28;20097;-62
2022/03/16 09:30:24;;;;;;;17.50;12.40;;;;;;;;;;5089926;28;20044;-63
2022/03/16 09:32:54;;;;;;;21.60;13.35;;;;;;;;;;5088923;28;20036;-62
2022/03/16 09:35:21;;;;;;;20.50;12.80;;;;;;;;;;5088346;28;20085;-61
2022/03/16 09:37:47;;;;;;;17.55;12.52;;;;;;;;;;5087781;28;20050;-63
2022/03/16 09:40:13;;;;;;;19.60;12.98;;;;;;;;;;5089546;28;20106;-61
2022/03/16 09:42:39;;;;;;;18.45;12.77;;;;;;;;;;5089297;28;20040;-63
2022/03/16 09:45:07;;;;;;;19.08;13.02;;;12.70;99.90;;;;;;5089190;28;20114;-63
2022/03/16 09:47:34;;;;;;;19.52;12.85;;;;;;;;;;5088883;28;20044;-62
2022/03/16 09:50:00;;;;;;;16.92;12.10;;;;;;;;;;5088260;28;20490;-62
2022/03/16 09:52:26;;;;;;;17.67;12.65;;;;;;;;;;5089054;28;20128;-63
2022/03/16 09:54:56;;;;;;;16.73;11.63;;;;;;;;;;5089052;28;20402;-62
2022/03/16 09:57:22;;;;;;;15.98;11.30;;;;;;;;;;5088862;28;20055;-62
2022/03/16 09:59:48;;;;;;;16.38;11.18;;;;;;;;;;5089344;28;20101;-62
2022/03/16 10:02:17;;;;;;;17.70;12.50;;;;;;;;;;5089051;28;20039;-63
2022/03/16 10:04:46;;;;;;;17.75;12.05;;;13.00;99.90;;;;;;5089412;28;20401;-62
2022/03/16 10:07:12;;;;;;;17.67;12.07;;;;;;;;;;5089077;28;20040;-61
2022/03/16 10:15:18;;;;;;;16.63;10.90;;;;;;;;;;5089412;28;20036;-62
2022/03/16 10:17:47;;;;;;;17.33;11.38;;;;;;;;;;5089310;28;20036;-62
2022/03/16 10:20:19;;;;;;;14.98;10.88;;;;;;;;;;5089086;28;20383;-63
2022/03/16 10:22:52;;;;;;;15.68;10.50;;;;;;;;;;5089225;28;20154;-62
2022/03/16 10:25:18;;;;;;;17.55;11.32;;;;;;;;;;5089040;28;20088;-63
2022/03/16 10:27:45;;;;;;;17.40;10.60;;;;;;;;;;5090007;28;20058;-62
2022/03/16 10:30:11;;;;;;;18.02;11.80;;;;;;;;;;5092506;28;20040;-63
2022/03/16 10:32:37;;;;;;;19.00;10.45;;;;;;;;;;5092626;28;20036;-62
2022/03/16 10:35:06;;;;;;;17.00;9.93;;;;;;;;;;5092815;28;20486;-62
2022/03/16 10:37:36;;;;;;;16.58;10.48;;;14.30;99.90;;;;;;5093276;28;20506;-62
2022/03/16 10:40:15;;;;;;;15.75;10.32;;;;;;;;;;5093167;28;20047;-63
2022/03/16 10:48:15;;;;;;;14.05;10.07;;;15.10;99.90;;;;;;5092857;28;20036;-63
2022/03/16 10:50:44;;;;;;;15.52;10.63;;;15.20;99.90;;;;;;5092894;28;20410;-63
2022/03/16 10:53:12;;;;;;;17.08;9.90;;;15.20;99.90;;;;;;5088654;28;20039;-63
2022/03/16 10:55:38;;;;;;;15.60;10.20;;;15.30;99.90;;;;;;5092104;28;20035;-63
2022/03/16 10:58:06;;;;;;;19.70;10.55;;;15.30;99.90;;;;;;5092183;28;20082;-63
2022/03/16 11:00:35;;;;;;;14.93;10.45;;;15.30;99.90;;;;;;5092260;28;20712;-63
2022/03/16 11:03:15;;;;;;;17.90;11.30;;;15.70;99.90;;;;;;5088080;28;20524;-63
2022/03/16 11:05:42;;;;;;;20.60;10.70;;;;;;;;;;5088522;28;20758;-63
2022/03/16 11:08:09;;;;;;;15.60;10.40;;;16.30;99.90;;;;;;5092271;28;20039;-62
2022/03/16 11:10:37;;;;;;;13.05;9.70;;;;;;;;;;5091736;28;20036;-63
2022/03/16 11:15:54;;;;;;;14.77;9.07;;;16.30;99.90;;;;;;5091605;28;20071;-64
2022/03/16 11:18:20;;;;;;;12.20;9.32;;;;;;;;;;5091129;28;20040;-63
2022/03/16 11:20:53;;;;;;;12.07;8.82;;;16.60;99.90;;;;;;5091292;28;20469;-63
2022/03/16 11:26:06;;;;;;;13.35;9.02;;;;;;;;;;5091890;28;20371;-63
2022/03/16 11:28:59;;;;;;;12.88;9.50;;;17.20;99.90;;;;;;5090669;28;20058;-63
2022/03/16 11:31:27;;;;;;;12.57;9.27;;;;;;;;;;5088389;28;20066;-63
2022/03/16 11:33:53;;;;;;;13.00;8.85;;;17.50;99.90;;;;;;5090493;28;20399;-63
2022/03/16 11:36:40;;;;;;;14.40;8.85;;;17.50;99.90;;;;;;5089436;28;20054;-63
2022/03/16 11:39:21;;;;;;;15.35;10.02;;;17.50;99.90;;;;;;5089056;28;20089;-63
2022/03/16 11:41:55;;;;;;;14.35;9.68;;;17.60;99.90;;;;;;5089742;28;20482;-62
2022/03/16 11:44:28;;;;;;;16.00;9.13;;;17.50;99.90;;;;;;5088080;28;20444;-62
2022/03/16 11:47:09;;;;;;;17.13;9.48;;;17.70;99.90;;;;;;5090884;28;20577;-63
2022/03/16 11:49:38;;;;;;;13.30;8.85;;;17.80;99.90;;;;;;5090780;28;20446;-62
2022/03/16 11:52:05;;;;;;;13.68;8.77;;;17.70;99.90;;;;;;5090992;28;20028;-62
2022/03/16 11:54:42;;;;;;;16.80;10.00;;;;;;;;;;5089275;28;20040;-63
2022/03/16 11:57:08;;;;;;;13.43;9.25;;;;;;;;;;5091024;28;20031;-63
2022/03/16 11:59:44;;;;;;;16.77;9.38;;;18.00;99.90;;;;;;5091613;28;20430;-63
2022/03/16 12:02:21;;;;;;;15.55;10.00;;;18.00;99.90;;;;;;5091231;28;20036;-62
2022/03/16 12:04:47;;;;;;;12.55;8.77;;;;;;;;;;5090916;28;20115;-63
2022/03/16 12:07:25;;;;;;;13.32;9.63;;;;;;;;;;5091802;28;20069;-63
2022/03/16 12:09:54;;;;;;;13.77;9.35;;;;;;;;;;5090636;28;20040;-61
2022/03/16 12:15:14;;;;;;;12.77;8.90;;;18.60;98.40;;;;;;5090536;28;20383;-63
2022/03/16 12:17:53;;;;;;;13.02;9.25;;;;;;;;;;5090667;28;20051;-63
2022/03/16 12:20:23;;;;;;;12.55;9.57;;;;;;;;;;5090843;28;20070;-62
2022/03/16 12:22:53;;;;;;;13.13;9.55;;;;;;;;;;5088815;28;20134;-63
2022/03/16 12:25:28;;;;;;;11.43;8.25;;;18.10;97.30;;;;;;5090372;28;20446;-63
2022/03/16 12:30:48;;;;;;;11.52;9.07;;;;;;;;;;5089975;28;20040;-62
2022/03/16 12:33:19;;;;;;;14.07;9.73;;;18.00;99.10;;;;;;5090479;28;20038;-61
2022/03/16 12:35:45;;;;;;;11.13;8.48;;;;;;;;;;5072486;28;20048;-63
2022/03/16 12:38:11;;;;;;;12.02;9.07;;;;;;;;;;5091087;28;20113;-64
2022/03/16 12:43:23;;;;;;;10.82;7.82;;;;;;;;;;5090317;28;20036;-62
2022/03/16 12:45:49;;;;;;;11.18;8.98;;;;;;;;;;5087724;28;20071;-62
2022/03/16 12:48:20;;;;;;;11.38;8.85;;;17.70;98.80;;;;;;5090238;28;20040;-64
2022/03/16 12:50:47;;;;;;;12.98;8.50;;;;;;;;;;5090092;28;20115;-62
2022/03/16 12:53:14;;;;;;;13.35;9.23;;;;;;;;;;5089612;28;20028;-62
2022/03/16 12:55:55;;;;;;;14.73;8.80;;;;;;;;;;5090517;28;20553;-64
2022/03/16 12:58:26;;;;;;;12.38;8.85;;;;;;;;;;5086876;28;20044;-63
2022/03/16 13:01:01;;;;;;;12.50;7.82;;;18.10;96.20;;;;;;5090270;28;20044;-62
2022/03/16 13:03:27;;;;;;;12.30;9.30;;;;;;;;;;5088625;28;20158;-62
2022/03/16 13:05:53;;;;;;;12.95;9.90;;;;;;;;;;5088215;28;20158;-63
2022/03/16 13:08:19;;;;;;;11.93;8.68;;;;;;;;;;5090108;28;20040;-64
2022/03/16 13:13:30;;;;;;;14.65;9.38;;;;;;;;;;5089925;28;20040;-62
2022/03/16 13:16:01;;;;;;;14.40;10.07;;;;;;;;;;5089854;28;20059;-63
2022/03/16 13:18:33;;;;;;;12.65;9.15;;;17.90;96.90;;;;;;5089124;28;20079;-64
2022/03/16 13:20:59;;;;;;;13.70;9.38;;;;;;;;;;5089841;28;20044;-62
2022/03/16 13:23:31;;;;;;;13.18;9.85;;;18.30;97.50;;;;;;5090146;28;20066;-63
2022/03/16 13:26:10;;;;;;;;;;;18.50;97.70;;;;;;5090365;28;20067;-63
2022/03/16 13:28:40;;;;;;;12.43;9.65;;;18.40;97.30;;;;;;5089250;28;19967;-64
2022/03/16 13:31:06;;;;;;;16.25;10.15;;;;;;;;;;5087115;28;20044;-62
2022/03/16 13:33:32;;;;;;;13.70;9.70;;;;;;;;;;5089808;28;20086;-63
2022/03/16 13:36:13;;;;;;;14.25;10.38;;;;;;;;;;5090433;28;20040;-62
2022/03/16 13:38:39;;;;;;;14.10;9.65;;;;;;;;;;5090456;28;20036;-63
2022/03/16 13:41:15;;;;;;;15.65;10.57;;;17.60;98.20;;;;;;5090253;28;20039;-63
2022/03/16 13:43:41;;;;;;;15.02;10.20;;;;;;;;;;5089026;28;20449;-64
2022/03/16 13:46:14;;;;;;;16.63;10.40;;;18.80;98.10;;;;;;5089959;28;20036;-62
2022/03/16 13:48:44;;;;;;;15.68;9.52;;;;;;;;;;5090504;28;20106;-64
2022/03/16 13:51:11;;;;;;;15.23;9.68;;;;;;;;;;5089894;28;20090;-63
2022/03/16 13:53:47;;;;;;;12.98;9.30;;;19.40;97.10;;;;;;5090181;28;20062;-64
2022/03/16 13:56:18;;;;;;;15.20;10.80;;;19.00;97.10;;;;;;5090113;28;20047;-63
2022/03/16 13:58:47;;;;;;;15.40;11.05;;;18.30;96.80;;;;;;5090413;28;20133;-62
2022/03/16 14:01:21;;;;;;;16.77;11.88;;;18.30;96.70;;;;;;5090242;28;20054;-63
2022/03/16 14:03:48;;;;;;;16.35;11.25;;;;;;;;;;5093017;28;20043;-62
2022/03/16 14:06:17;;;;;;;13.95;10.93;;;17.50;97.80;;;;;;5093952;28;20498;-63
2022/03/16 14:08:45;;;;;;;15.70;11.25;;;;;;;;;;5092999;28;20420;-62
2022/03/16 14:11:11;;;;;;;17.50;11.52;;;;;;;;;;5093667;28;20460;-63
2022/03/16 14:13:42;;;;;;;16.05;10.85;;;16.60;98.70;;;;;;5093785;28;20036;-61
2022/03/16 14:16:13;;;;;;;16.75;11.38;;;;;;;;;;5094059;28;20036;-62
2022/03/16 14:18:39;;;;;;;15.90;11.70;;;;;;;;;;5093867;28;20123;-63
2022/03/16 14:21:07;;;;;;;16.35;11.77;;;;;;;;;;5093642;28;20090;-62
2022/03/16 14:23:37;;;;;;;17.58;11.52;;;15.80;99.70;;;;;;5093386;28;20402;-63
2022/03/16 14:26:04;;;;;;;15.60;12.07;;;;;;;;;;5093856;28;20412;-63
2022/03/16 14:28:31;;;;;;;16.65;11.55;;;;;;;;;;5093702;28;20044;-63
2022/03/16 14:30:57;;;;;;;17.83;13.18;;;;;;;;;;5093604;28;20040;-62
2022/03/16 14:33:29;;;;;;;21.60;12.20;;;15.40;99.90;;;;;;5093171;28;20451;-63